Wetterdaten: Woche 06.09.04 - 12.09.04 (KW37)
Datum Zeit Temperatur Luftfeuchte Luftdruck Regenmenge Wind Richtung Taupunkt Windchill
06.09.2004 00:00 16.8 C 66 % 1023.0 hPa 0.0 l/m 0.0 km/h (0 Bft) N 10.4 C 16.8 C
06.09.2004 01:00 15.4 C 76 % 1023.2 hPa 0.0 l/m 0.1 km/h (0 Bft) N 11.3 C 15.4 C
06.09.2004 02:00 14.3 C 81 % 1023.3 hPa 0.0 l/m 0.0 km/h (0 Bft) N 11.1 C 14.3 C
06.09.2004 03:00 14.2 C 79 % 1023.3 hPa 0.0 l/m 0.1 km/h (0 Bft) N 10.6 C 14.2 C
06.09.2004 04:00 13.3 C 84 % 1023.4 hPa 0.0 l/m 2.3 km/h (1 Bft) O-SO 10.6 C 13.3 C
06.09.2004 05:00 12.7 C 87 % 1023.5 hPa 0.0 l/m 3.7 km/h (1 Bft) O 10.6 C 12.7 C
06.09.2004 06:00 11.8 C 91 % 1023.6 hPa 0.0 l/m 1.6 km/h (1 Bft) O 10.5 C 11.8 C
06.09.2004 07:00 11.9 C 93 % 1023.6 hPa 0.0 l/m 1.6 km/h (1 Bft) O 10.8 C 11.9 C
06.09.2004 08:00 14.1 C 84 % 1023.9 hPa 0.0 l/m 0.0 km/h (0 Bft) N 11.4 C 14.1 C
06.09.2004 09:00 16.4 C 68 % 1024.1 hPa 0.0 l/m 0.0 km/h (0 Bft) N 10.5 C 16.4 C
06.09.2004 10:00 19.3 C 59 % 1023.7 hPa 0.0 l/m 5.0 km/h (1 Bft) O-SO 11.1 C 19.3 C
06.09.2004 11:00 21.1 C 56 % 1023.0 hPa 0.0 l/m 7.0 km/h (2 Bft) O-SO 11.9 C 21.1 C
06.09.2004 12:00 23.1 C 53 % 1022.1 hPa 0.0 l/m 9.3 km/h (2 Bft) O-SO 13.0 C 23.1 C
06.09.2004 13:00 24.6 C 49 % 1022.0 hPa 0.0 l/m 3.4 km/h (1 Bft) O-SO 13.2 C 24.6 C
06.09.2004 14:00 26.3 C 44 % 1021.1 hPa 0.0 l/m 1.3 km/h (1 Bft) O 13.0 C 26.3 C
06.09.2004 15:00 26.9 C 43 % 1020.6 hPa 0.0 l/m 2.3 km/h (1 Bft) O-SO 13.1 C 26.9 C
06.09.2004 16:00 27.1 C 42 % 1020.6 hPa 0.0 l/m 8.3 km/h (2 Bft) O-SO 13.1 C 27.1 C
06.09.2004 17:00 26.8 C 42 % 1020.6 hPa 0.0 l/m 9.0 km/h (2 Bft) O-SO 13.0 C 26.8 C
06.09.2004 18:00 25.8 C 44 % 1020.8 hPa 0.0 l/m 4.0 km/h (1 Bft) O-SO 12.6 C 25.8 C
06.09.2004 19:00 23.4 C 53 % 1021.1 hPa 0.0 l/m 0.3 km/h (0 Bft) O-SO 13.1 C 23.4 C
06.09.2004 20:00 20.2 C 65 % 1021.7 hPa 0.0 l/m 0.7 km/h (0 Bft) O-SO 13.3 C 20.2 C
06.09.2004 21:00 17.8 C 79 % 1022.8 hPa 0.0 l/m 1.9 km/h (1 Bft) O-SO 14.1 C 17.8 C
06.09.2004 22:00 16.4 C 85 % 1023.0 hPa 0.0 l/m 0.0 km/h (0 Bft) N 13.9 C 16.4 C
06.09.2004 23:00 15.2 C 91 % 1023.4 hPa 0.0 l/m 0.0 km/h (0 Bft) N 13.7 C 15.2 C
07.09.2004 00:00 14.6 C 93 % 1024.2 hPa 0.0 l/m 0.4 km/h (0 Bft) O-SO 13.5 C 14.6 C
07.09.2004 01:00 14.2 C 95 % 1024.3 hPa 0.0 l/m 0.8 km/h (0 Bft) O-SO 13.4 C 14.2 C
07.09.2004 02:00 13.5 C 96 % 1024.4 hPa 0.0 l/m 0.9 km/h (0 Bft) O-SO 12.9 C 13.5 C
07.09.2004 03:00 12.8 C 98 % 1024.6 hPa 0.0 l/m 0.0 km/h (0 Bft) N 12.5 C 12.8 C
07.09.2004 04:00 12.1 C 99 % 1024.6 hPa 0.0 l/m 0.0 km/h (0 Bft) N 11.9 C 12.1 C
07.09.2004 05:00 11.9 C 100 % 1024.7 hPa 0.0 l/m 0.2 km/h (0 Bft) O-SO 11.8 C 11.9 C
07.09.2004 06:00 11.6 C 100 % 1024.7 hPa 0.0 l/m 1.8 km/h (1 Bft) O-SO 11.6 C 11.6 C
07.09.2004 07:00 11.8 C 100 % 1025.6 hPa 0.0 l/m 0.0 km/h (0 Bft) N 11.7 C 11.8 C
07.09.2004 08:00 13.7 C 96 % 1025.5 hPa 0.0 l/m 0.0 km/h (0 Bft) N 13.2 C 13.7 C
07.09.2004 09:00 15.7 C 86 % 1025.9 hPa 0.0 l/m 0.0 km/h (0 Bft) N 13.3 C 15.7 C
07.09.2004 10:00 18.3 C 72 % 1025.9 hPa 0.0 l/m 0.0 km/h (0 Bft) N 13.2 C 18.3 C
07.09.2004 11:00 21.8 C 60 % 1025.4 hPa 0.0 l/m 5.4 km/h (1 Bft) O-SO 13.7 C 21.8 C
07.09.2004 12:00 24.1 C 54 % 1025.0 hPa 0.0 l/m 11.9 km/h (2 Bft) O-SO 14.1 C 24.1 C
07.09.2004 13:00 25.6 C 47 % 1023.9 hPa 0.0 l/m 13.2 km/h (3 Bft) O-SO 13.5 C 25.6 C
07.09.2004 14:00 27.0 C 42 % 1023.7 hPa 0.0 l/m 13.4 km/h (3 Bft) O-SO 13.0 C 27.0 C
07.09.2004 15:00 27.4 C 39 % 1023.1 hPa 0.0 l/m 10.8 km/h (2 Bft) O-SO 12.1 C 27.4 C
07.09.2004 16:00 27.2 C 35 % 1022.8 hPa 0.0 l/m 16.3 km/h (3 Bft) O-SO 10.4 C 27.2 C
07.09.2004 17:00 26.6 C 33 % 1022.7 hPa 0.0 l/m 17.9 km/h (3 Bft) O-SO 8.8 C 26.6 C
07.09.2004 18:00 25.6 C 35 % 1022.9 hPa 0.0 l/m 7.4 km/h (2 Bft) O-SO 8.9 C 25.6 C
07.09.2004 19:00 23.6 C 40 % 1023.5 hPa 0.0 l/m 0.3 km/h (0 Bft) O 9.1 C 23.6 C
07.09.2004 20:00 19.6 C 54 % 1024.7 hPa 0.0 l/m 2.0 km/h (1 Bft) O 10.1 C 19.6 C
07.09.2004 21:00 17.4 C 63 % 1026.0 hPa 0.0 l/m 1.6 km/h (1 Bft) O 10.2 C 17.4 C
07.09.2004 22:00 16.6 C 65 % 1026.8 hPa 0.0 l/m 1.0 km/h (0 Bft) O 10.1 C 16.6 C
07.09.2004 23:00 15.8 C 71 % 1027.3 hPa 0.0 l/m 0.6 km/h (0 Bft) O 10.4 C 15.8 C
08.09.2004 00:00 14.3 C 81 % 1027.5 hPa 0.0 l/m 0.8 km/h (0 Bft) O 11.0 C 14.3 C
08.09.2004 01:00 13.5 C 85 % 1027.1 hPa 0.0 l/m 0.4 km/h (0 Bft) O 11.1 C 13.5 C
08.09.2004 02:00 13.0 C 89 % 1027.3 hPa 0.0 l/m 3.1 km/h (1 Bft) O 11.2 C 13.0 C
08.09.2004 03:00 12.4 C 93 % 1027.7 hPa 0.0 l/m 0.0 km/h (0 Bft) N 11.2 C 12.4 C
08.09.2004 04:00 11.7 C 94 % 1027.8 hPa 0.0 l/m 3.2 km/h (1 Bft) O-SO 10.8 C 11.7 C
08.09.2004 05:00 10.9 C 96 % 1027.9 hPa 0.0 l/m 1.6 km/h (1 Bft) O-SO 10.3 C 10.9 C
08.09.2004 06:00 10.3 C 98 % 1028.0 hPa 0.0 l/m 2.4 km/h (1 Bft) O-SO 10.0 C 10.3 C
08.09.2004 07:00 10.5 C 99 % 1028.7 hPa 0.0 l/m 0.0 km/h (0 Bft) N 10.4 C 10.5 C
08.09.2004 08:00 12.6 C 94 % 1028.7 hPa 0.0 l/m 0.0 km/h (0 Bft) N 11.7 C 12.6 C
08.09.2004 09:00 15.1 C 81 % 1028.4 hPa 0.0 l/m 0.0 km/h (0 Bft) N 11.9 C 15.1 C
08.09.2004 10:00 18.5 C 62 % 1027.9 hPa 0.0 l/m 0.0 km/h (0 Bft) N 10.9 C 18.5 C
08.09.2004 11:00 21.1 C 52 % 1027.6 hPa 0.0 l/m 0.3 km/h (0 Bft) NO 10.8 C 21.1 C
08.09.2004 12:00 23.7 C 44 % 1027.3 hPa 0.0 l/m 9.4 km/h (2 Bft) O-SO 10.7 C 23.7 C
08.09.2004 13:00 25.5 C 37 % 1026.6 hPa 0.0 l/m 16.6 km/h (3 Bft) O-SO 9.7 C 25.5 C
08.09.2004 14:00 26.1 C 33 % 1025.9 hPa 0.0 l/m 19.8 km/h (3 Bft) O-SO 8.5 C 26.1 C
08.09.2004 15:00 27.5 C 30 % 1025.5 hPa 0.0 l/m 11.3 km/h (2 Bft) O 8.6 C 27.5 C
08.09.2004 16:00 27.0 C 33 % 1024.8 hPa 0.0 l/m 19.4 km/h (3 Bft) O-SO 9.1 C 27.0 C
08.09.2004 17:00 26.2 C 34 % 1024.9 hPa 0.0 l/m 17.1 km/h (3 Bft) O-SO 9.1 C 26.2 C
08.09.2004 18:00 24.7 C 37 % 1025.1 hPa 0.0 l/m 3.4 km/h (1 Bft) O-SO 9.0 C 24.7 C
08.09.2004 19:00 22.1 C 46 % 1025.5 hPa 0.0 l/m 0.0 km/h (0 Bft) N 9.8 C 22.1 C
08.09.2004 20:00 19.4 C 56 % 1026.8 hPa 0.0 l/m 0.9 km/h (0 Bft) O-NO 10.4 C 19.4 C
08.09.2004 21:00 17.6 C 68 % 1027.0 hPa 0.0 l/m 2.8 km/h (1 Bft) O 11.6 C 17.6 C
08.09.2004 22:00 17.1 C 71 % 1027.7 hPa 0.0 l/m 1.6 km/h (1 Bft) O 11.7 C 17.1 C
08.09.2004 23:00 16.9 C 72 % 1028.2 hPa 0.0 l/m 0.7 km/h (0 Bft) O 11.8 C 16.9 C
09.09.2004 00:00 16.4 C 69 % 1027.7 hPa 0.0 l/m 0.2 km/h (0 Bft) N-NO 10.7 C 16.4 C
09.09.2004 01:00 16.5 C 58 % 1027.2 hPa 0.0 l/m 1.6 km/h (1 Bft) N 8.3 C 16.5 C
09.09.2004 02:00 15.2 C 59 % 1027.3 hPa 0.0 l/m 0.3 km/h (0 Bft) N 7.2 C 15.2 C
09.09.2004 03:00 12.7 C 72 % 1027.7 hPa 0.0 l/m 1.7 km/h (1 Bft) O 7.9 C 12.7 C
09.09.2004 04:00 11.6 C 77 % 1027.8 hPa 0.0 l/m 3.3 km/h (1 Bft) O 7.7 C 11.6 C
09.09.2004 05:00 10.8 C 81 % 1027.3 hPa 0.0 l/m 3.1 km/h (1 Bft) O 7.6 C 10.8 C
09.09.2004 06:00 11.0 C 79 % 1027.4 hPa 0.0 l/m 5.2 km/h (1 Bft) O 7.4 C 11.0 C
09.09.2004 07:00 11.1 C 80 % 1027.9 hPa 0.0 l/m 6.7 km/h (2 Bft) O 7.8 C 11.1 C
09.09.2004 08:00 13.5 C 69 % 1027.6 hPa 0.0 l/m 1.9 km/h (1 Bft) O 8.0 C 13.5 C
09.09.2004 09:00 16.0 C 61 % 1027.5 hPa 0.0 l/m 8.2 km/h (2 Bft) O-SO 8.4 C 16.0 C
09.09.2004 10:00 17.7 C 55 % 1027.8 hPa 0.0 l/m 9.2 km/h (2 Bft) O-SO 8.5 C 17.7 C
09.09.2004 11:00 19.7 C 51 % 1026.7 hPa 0.0 l/m 11.5 km/h (2 Bft) O-SO 9.2 C 19.7 C
09.09.2004 12:00 21.9 C 47 % 1026.5 hPa 0.0 l/m 15.2 km/h (3 Bft) O-SO 9.9 C 21.9 C
09.09.2004 13:00 23.5 C 43 % 1025.5 hPa 0.0 l/m 15.3 km/h (3 Bft) O-SO 10.0 C 23.5 C
09.09.2004 14:00 24.6 C 40 % 1024.6 hPa 0.0 l/m 17.6 km/h (3 Bft) O-SO 10.1 C 24.6 C
09.09.2004 15:00 25.2 C 39 % 1024.0 hPa 0.0 l/m 17.4 km/h (3 Bft) O-SO 10.1 C 25.2 C
09.09.2004 16:00 25.3 C 38 % 1023.2 hPa 0.0 l/m 16.7 km/h (3 Bft) O-SO 9.8 C 25.3 C
09.09.2004 17:00 24.8 C 37 % 1023.0 hPa 0.0 l/m 15.9 km/h (3 Bft) O-SO 9.2 C 24.8 C
09.09.2004 18:00 23.9 C 40 % 1022.8 hPa 0.0 l/m 12.0 km/h (2 Bft) O-SO 9.3 C 23.9 C
09.09.2004 19:00 21.5 C 47 % 1022.4 hPa 0.0 l/m 1.1 km/h (0 Bft) O-SO 9.5 C 21.5 C
09.09.2004 20:00 19.0 C 54 % 1023.6 hPa 0.0 l/m 0.2 km/h (0 Bft) N 9.5 C 19.0 C
09.09.2004 21:00 17.6 C 56 % 1023.9 hPa 0.0 l/m 0.0 km/h (0 Bft) N 8.6 C 17.6 C
09.09.2004 22:00 16.0 C 59 % 1024.1 hPa 0.0 l/m 0.2 km/h (0 Bft) N-NO 7.9 C 16.0 C
09.09.2004 23:00 14.3 C 65 % 1024.3 hPa 0.0 l/m 0.0 km/h (0 Bft) N 7.7 C 14.3 C
10.09.2004 00:00 13.0 C 70 % 1024.5 hPa 0.0 l/m 0.0 km/h (0 Bft) N 7.6 C 13.0 C
10.09.2004 01:00 11.6 C 77 % 1024.7 hPa 0.0 l/m 0.0 km/h (0 Bft) N 7.8 C 11.6 C
10.09.2004 02:00 10.8 C 82 % 1024.8 hPa 0.0 l/m 0.2 km/h (0 Bft) SO 7.8 C 10.8 C
10.09.2004 03:00 10.2 C 83 % 1024.9 hPa 0.0 l/m 0.6 km/h (0 Bft) SO 7.5 C 10.2 C
10.09.2004 04:00 9.4 C 88 % 1025.0 hPa 0.0 l/m 0.1 km/h (0 Bft) SO 7.5 C 9.4 C
10.09.2004 05:00 9.0 C 90 % 1025.1 hPa 0.0 l/m 0.0 km/h (0 Bft) N 7.5 C 9.0 C
10.09.2004 06:00 8.7 C 93 % 1025.1 hPa 0.0 l/m 0.0 km/h (0 Bft) N 7.7 C 8.7 C
10.09.2004 07:00 9.9 C 90 % 1024.9 hPa 0.0 l/m 0.0 km/h (0 Bft) N 8.3 C 9.9 C
10.09.2004 08:00 11.5 C 77 % 1024.7 hPa 0.0 l/m 0.2 km/h (0 Bft) SO 7.7 C 11.5 C
10.09.2004 09:00 13.7 C 65 % 1024.4 hPa 0.0 l/m 0.4 km/h (0 Bft) SO 7.3 C 13.7 C
10.09.2004 10:00 15.6 C 56 % 1024.2 hPa 0.0 l/m 1.3 km/h (1 Bft) W-NW 7.0 C 15.6 C
10.09.2004 11:00 18.2 C 51 % 1023.6 hPa 0.0 l/m 4.0 km/h (1 Bft) W-NW 7.8 C 18.2 C
10.09.2004 12:00 20.8 C 50 % 1022.2 hPa 0.0 l/m 1.7 km/h (1 Bft) W 9.9 C 20.8 C
10.09.2004 13:00 23.6 C 47 % 1020.9 hPa 0.0 l/m 0.8 km/h (0 Bft) O 11.6 C 23.6 C
10.09.2004 14:00 25.2 C 44 % 1019.8 hPa 0.0 l/m 1.1 km/h (0 Bft) W-NW 12.0 C 25.2 C
10.09.2004 15:00 26.4 C 42 % 1018.7 hPa 0.0 l/m 0.7 km/h (0 Bft) W-NW 12.5 C 26.4 C
10.09.2004 16:00 27.5 C 41 % 1018.5 hPa 0.0 l/m 0.4 km/h (0 Bft) SO 12.9 C 27.5 C
10.09.2004 17:00 27.0 C 42 % 1018.5 hPa 0.0 l/m 0.0 km/h (0 Bft) N 12.9 C 27.0 C
10.09.2004 18:00 25.5 C 49 % 1018.7 hPa 0.0 l/m 0.0 km/h (0 Bft) N 14.0 C 25.5 C
10.09.2004 19:00 22.9 C 62 % 1019.1 hPa 0.0 l/m 2.4 km/h (1 Bft) O-SO 15.3 C 22.9 C
10.09.2004 20:00 20.8 C 73 % 1019.3 hPa 0.0 l/m 2.9 km/h (1 Bft) O-SO 15.8 C 20.8 C
10.09.2004 21:00 19.7 C 83 % 1020.3 hPa 0.0 l/m 3.6 km/h (1 Bft) O-SO 16.8 C 19.7 C
10.09.2004 22:00 19.2 C 86 % 1020.6 hPa 0.0 l/m 2.7 km/h (1 Bft) O-SO 16.8 C 19.2 C
10.09.2004 23:00 18.8 C 88 % 1020.6 hPa 0.0 l/m 1.8 km/h (1 Bft) O-SO 16.8 C 18.8 C
11.09.2004 00:00 18.3 C 89 % 1020.7 hPa 0.0 l/m 1.2 km/h (1 Bft) O-SO 16.5 C 18.3 C
11.09.2004 01:00 17.7 C 94 % 1020.8 hPa 0.0 l/m 0.6 km/h (0 Bft) O-SO 16.7 C 17.7 C
11.09.2004 02:00 17.4 C 96 % 1020.8 hPa 0.0 l/m 2.7 km/h (1 Bft) O-SO 16.7 C 17.4 C
11.09.2004 03:00 17.7 C 95 % 1020.8 hPa 0.0 l/m 0.1 km/h (0 Bft) N 16.9 C 17.7 C
11.09.2004 04:00 17.3 C 97 % 1020.8 hPa 0.0 l/m 0.1 km/h (0 Bft) N 16.7 C 17.3 C
11.09.2004 05:00 17.0 C 97 % 1020.9 hPa 0.0 l/m 0.0 km/h (0 Bft) N 16.5 C 17.0 C
11.09.2004 06:00 16.9 C 97 % 1020.9 hPa 0.0 l/m 0.0 km/h (0 Bft) N 16.4 C 16.9 C
11.09.2004 07:00 17.0 C 96 % 1021.0 hPa 0.0 l/m 0.0 km/h (0 Bft) N 16.3 C 17.0 C
11.09.2004 08:00 17.9 C 93 % 1021.8 hPa 0.0 l/m 0.0 km/h (0 Bft) N 16.7 C 17.9 C
11.09.2004 09:00 19.6 C 76 % 1021.6 hPa 0.0 l/m 0.3 km/h (0 Bft) S 15.1 C 19.6 C
11.09.2004 10:00 20.4 C 68 % 1021.9 hPa 0.0 l/m 2.6 km/h (1 Bft) O-SO 14.4 C 20.4 C
11.09.2004 11:00 22.0 C 60 % 1021.2 hPa 0.0 l/m 5.2 km/h (1 Bft) O-SO 13.8 C 22.0 C
11.09.2004 12:00 24.0 C 51 % 1020.9 hPa 0.0 l/m 4.6 km/h (1 Bft) O-SO 13.1 C 24.0 C
11.09.2004 13:00 25.2 C 47 % 1019.8 hPa 0.0 l/m 4.7 km/h (1 Bft) O-SO 13.1 C 25.2 C
11.09.2004 14:00 26.4 C 44 % 1019.2 hPa 0.0 l/m 5.0 km/h (1 Bft) O-SO 13.1 C 26.4 C
11.09.2004 15:00 27.0 C 43 % 1018.5 hPa 0.0 l/m 2.6 km/h (1 Bft) NW 13.2 C 27.0 C
11.09.2004 16:00 27.4 C 42 % 1017.5 hPa 0.0 l/m 2.3 km/h (1 Bft) O-SO 13.4 C 27.4 C
11.09.2004 17:00 27.3 C 42 % 1017.5 hPa 0.0 l/m 0.3 km/h (0 Bft) O 13.1 C 27.3 C
11.09.2004 18:00 26.0 C 46 % 1016.7 hPa 0.0 l/m 0.1 km/h (0 Bft) N 13.3 C 26.0 C
11.09.2004 19:00 23.3 C 59 % 1016.9 hPa 0.0 l/m 0.2 km/h (0 Bft) O 14.8 C 23.3 C
11.09.2004 20:00 21.7 C 67 % 1017.4 hPa 0.0 l/m 0.5 km/h (0 Bft) O 15.4 C 21.7 C
11.09.2004 21:00 21.1 C 70 % 1018.2 hPa 0.0 l/m 0.5 km/h (0 Bft) O 15.5 C 21.1 C
11.09.2004 22:00 20.1 C 77 % 1018.4 hPa 0.0 l/m 6.8 km/h (2 Bft) O-SO 15.9 C 20.1 C
11.09.2004 23:00 18.8 C 84 % 1018.5 hPa 0.0 l/m 0.1 km/h (0 Bft) N 16.1 C 18.8 C
12.09.2004 00:00 18.2 C 88 % 1019.3 hPa 0.3 l/m 9.8 km/h (2 Bft) O-SO 16.1 C 18.2 C
12.09.2004 01:00 16.8 C 95 % 1018.8 hPa 0.0 l/m 4.6 km/h (1 Bft) SO 16.1 C 16.8 C
12.09.2004 02:00 16.3 C 97 % 1018.9 hPa 0.0 l/m 5.8 km/h (2 Bft) O-SO 15.8 C 16.3 C
12.09.2004 03:00 16.5 C 97 % 1018.9 hPa 3.1 l/m 2.4 km/h (1 Bft) O-SO 16.0 C 16.5 C
12.09.2004 04:00 16.2 C 99 % 1018.9 hPa 1.2 l/m 1.3 km/h (1 Bft) S-SO 16.0 C 16.2 C
12.09.2004 05:00 16.2 C 100 % 1018.9 hPa 2.8 l/m 2.4 km/h (1 Bft) O-SO 16.2 C 16.2 C
12.09.2004 06:00 15.9 C 100 % 1018.9 hPa 2.8 l/m 2.5 km/h (1 Bft) O-SO 15.9 C 15.9 C
12.09.2004 07:00 16.0 C 100 % 1018.9 hPa 5.9 l/m 2.1 km/h (1 Bft) O-SO 16.0 C 16.0 C
12.09.2004 08:00 15.8 C 100 % 1018.9 hPa 3.4 l/m 1.8 km/h (1 Bft) SO 15.8 C 15.8 C
12.09.2004 09:00 15.6 C 100 % 1019.9 hPa 0.3 l/m 16.9 km/h (3 Bft) NW 15.6 C 15.6 C
12.09.2004 10:00 16.0 C 95 % 1020.4 hPa 0.0 l/m 22.2 km/h (4 Bft) W-NW 15.2 C 16.0 C
12.09.2004 11:00 16.9 C 74 % 1020.8 hPa 0.0 l/m 29.2 km/h (5 Bft) W-NW 12.3 C 16.9 C
12.09.2004 12:00 17.2 C 61 % 1020.8 hPa 0.0 l/m 30.8 km/h (5 Bft) NW 9.7 C 17.2 C
12.09.2004 13:00 18.7 C 58 % 1020.6 hPa 0.0 l/m 29.6 km/h (5 Bft) W-NW 10.2 C 18.7 C
12.09.2004 14:00 19.7 C 49 % 1019.6 hPa 0.0 l/m 35.6 km/h (5 Bft) W-NW 8.7 C 19.7 C
12.09.2004 15:00 19.9 C 50 % 1019.4 hPa 0.0 l/m 30.5 km/h (5 Bft) NW 9.2 C 19.9 C
12.09.2004 16:00 20.4 C 50 % 1019.4 hPa 0.0 l/m 26.9 km/h (4 Bft) W-NW 9.5 C 20.4 C
12.09.2004 17:00 20.2 C 50 % 1019.4 hPa 0.0 l/m 25.8 km/h (4 Bft) W-NW 9.4 C 20.2 C
12.09.2004 18:00 19.4 C 55 % 1019.5 hPa 0.0 l/m 15.7 km/h (3 Bft) W-NW 10.0 C 19.4 C
12.09.2004 19:00 17.9 C 60 % 1019.7 hPa 0.0 l/m 11.8 km/h (2 Bft) W-NW 10.0 C 17.9 C
12.09.2004 20:00 16.1 C 68 % 1020.0 hPa 0.0 l/m 1.8 km/h (1 Bft) W-NW 10.2 C 16.1 C
12.09.2004 21:00 15.7 C 75 % 1021.0 hPa 0.0 l/m 2.1 km/h (1 Bft) S-SO 11.3 C 15.7 C
12.09.2004 22:00 14.3 C 83 % 1021.2 hPa 0.0 l/m 0.0 km/h (0 Bft) N 11.4 C 14.3 C
12.09.2004 23:00 12.7 C 92 % 1021.4 hPa 0.0 l/m 0.0 km/h (0 Bft) N 11.3 C 12.7 C
Min-Datum _ 10.09.04 08.09.04 11.09.04 - 06.09.04 - 09.09.04 10.09.04
_ Min-Zeit 06:19 15:40 18:07 - 00:01 - 02:34 06:19
Minimum _ 8.4 C 28 % 1016.5 hPa - 0.0 km/h (0 Bft) - 6.4 C 8.4 C
Max-Datum _ 10.09.04 07.09.04 08.09.04 12.09.04 12.09.04 - 11.09.04 10.09.04
_ Max-Zeit 15:46 05:22 07:22 06:00 14:19 - 08:22 15:46
Maximum _ 28.0 C 100 % 1029.1 hPa 5.9 l/m 53.3 km/h
W-NW (7 Bft)
- 17.3 C 28.0 C
Durchschnitt _ 18.5 C 68 % 1023.1 hPa #19.8 l/m 4.9 km/h (1 Bft) O-SO 11.7 C 18.5 C

Durchschnitt Minimum Temp.17.5 C
Durchschnitt Maximum Temp.19.4 C
© Kaiko 2004